sensor_id;sensor_type;location;lat;lon;timestamp;P1;durP1;ratioP1;P2;durP2;ratioP2
16870;SDS011;8552;48.120;-1.456;2023-08-30T00:00:46;11.80;;;6.05;;
16870;SDS011;8552;48.120;-1.456;2023-08-30T00:03:12;10.18;;;5.40;;
16870;SDS011;8552;48.120;-1.456;2023-08-30T00:05:41;13.45;;;5.97;;
16870;SDS011;8552;48.120;-1.456;2023-08-30T00:08:07;10.73;;;4.93;;
16870;SDS011;8552;48.120;-1.456;2023-08-30T00:10:33;11.90;;;6.20;;
16870;SDS011;8552;48.120;-1.456;2023-08-30T00:12:59;9.55;;;5.03;;
16870;SDS011;8552;48.120;-1.456;2023-08-30T00:15:25;9.05;;;5.03;;
16870;SDS011;8552;48.120;-1.456;2023-08-30T00:17:50;8.40;;;5.15;;
16870;SDS011;8552;48.120;-1.456;2023-08-30T00:20:17;8.75;;;5.28;;
16870;SDS011;8552;48.120;-1.456;2023-08-30T00:22:43;9.43;;;5.15;;
16870;SDS011;8552;48.120;-1.456;2023-08-30T00:25:09;7.20;;;3.92;;
16870;SDS011;8552;48.120;-1.456;2023-08-30T00:27:34;5.50;;;4.07;;
16870;SDS011;8552;48.120;-1.456;2023-08-30T00:30:00;8.68;;;4.32;;
16870;SDS011;8552;48.120;-1.456;2023-08-30T00:32:26;5.72;;;4.35;;
16870;SDS011;8552;48.120;-1.456;2023-08-30T00:34:51;7.47;;;4.43;;
16870;SDS011;8552;48.120;-1.456;2023-08-30T00:37:17;8.45;;;4.60;;
16870;SDS011;8552;48.120;-1.456;2023-08-30T00:39:43;9.20;;;4.35;;
16870;SDS011;8552;48.120;-1.456;2023-08-30T00:42:08;7.05;;;3.75;;
16870;SDS011;8552;48.120;-1.456;2023-08-30T00:44:34;8.90;;;4.35;;
16870;SDS011;8552;48.120;-1.456;2023-08-30T00:47:01;7.57;;;4.00;;
16870;SDS011;8552;48.120;-1.456;2023-08-30T00:49:28;5.88;;;3.92;;
16870;SDS011;8552;48.120;-1.456;2023-08-30T00:51:57;9.23;;;4.47;;
16870;SDS011;8552;48.120;-1.456;2023-08-30T00:54:26;5.72;;;4.38;;
16870;SDS011;8552;48.120;-1.456;2023-08-30T00:56:52;6.68;;;3.78;;
16870;SDS011;8552;48.120;-1.456;2023-08-30T00:59:19;7.28;;;4.32;;
16870;SDS011;8552;48.120;-1.456;2023-08-30T01:01:45;6.97;;;3.97;;
16870;SDS011;8552;48.120;-1.456;2023-08-30T01:04:11;6.95;;;3.75;;
16870;SDS011;8552;48.120;-1.456;2023-08-30T01:06:37;12.43;;;4.43;;
16870;SDS011;8552;48.120;-1.456;2023-08-30T01:09:02;6.32;;;4.20;;
16870;SDS011;8552;48.120;-1.456;2023-08-30T01:11:36;8.38;;;4.68;;
16870;SDS011;8552;48.120;-1.456;2023-08-30T01:14:21;7.55;;;5.22;;
16870;SDS011;8552;48.120;-1.456;2023-08-30T01:16:51;7.35;;;4.50;;
16870;SDS011;8552;48.120;-1.456;2023-08-30T01:22:16;8.68;;;5.25;;
16870;SDS011;8552;48.120;-1.456;2023-08-30T01:27:30;8.48;;;5.43;;
16870;SDS011;8552;48.120;-1.456;2023-08-30T01:30:00;8.85;;;5.40;;
16870;SDS011;8552;48.120;-1.456;2023-08-30T01:32:28;7.60;;;4.70;;
16870;SDS011;8552;48.120;-1.456;2023-08-30T01:34:55;8.30;;;4.97;;
16870;SDS011;8552;48.120;-1.456;2023-08-30T01:37:21;9.25;;;4.57;;
16870;SDS011;8552;48.120;-1.456;2023-08-30T01:39:49;6.95;;;4.85;;
16870;SDS011;8552;48.120;-1.456;2023-08-30T01:42:15;10.23;;;4.60;;
16870;SDS011;8552;48.120;-1.456;2023-08-30T01:44:46;8.73;;;4.63;;
16870;SDS011;8552;48.120;-1.456;2023-08-30T01:47:13;8.65;;;4.90;;
16870;SDS011;8552;48.120;-1.456;2023-08-30T01:49:41;6.65;;;4.20;;
16870;SDS011;8552;48.120;-1.456;2023-08-30T01:52:08;6.55;;;4.25;;
16870;SDS011;8552;48.120;-1.456;2023-08-30T01:54:35;7.80;;;4.28;;
16870;SDS011;8552;48.120;-1.456;2023-08-30T01:57:02;7.18;;;4.50;;
16870;SDS011;8552;48.120;-1.456;2023-08-30T01:59:29;8.43;;;4.53;;
16870;SDS011;8552;48.120;-1.456;2023-08-30T02:01:55;7.70;;;5.13;;
16870;SDS011;8552;48.120;-1.456;2023-08-30T02:04:21;7.60;;;4.20;;
16870;SDS011;8552;48.120;-1.456;2023-08-30T02:09:26;9.38;;;4.18;;
16870;SDS011;8552;48.120;-1.456;2023-08-30T02:11:56;4.10;;;3.33;;
16870;SDS011;8552;48.120;-1.456;2023-08-30T02:14:26;4.07;;;2.30;;
16870;SDS011;8552;48.120;-1.456;2023-08-30T02:16:53;2.50;;;1.95;;
16870;SDS011;8552;48.120;-1.456;2023-08-30T02:19:20;1.95;;;1.60;;
16870;SDS011;8552;48.120;-1.456;2023-08-30T02:21:47;3.13;;;1.67;;
16870;SDS011;8552;48.120;-1.456;2023-08-30T02:24:13;3.20;;;1.63;;
16870;SDS011;8552;48.120;-1.456;2023-08-30T02:26:39;3.63;;;1.60;;
16870;SDS011;8552;48.120;-1.456;2023-08-30T02:29:05;1.95;;;1.00;;
16870;SDS011;8552;48.120;-1.456;2023-08-30T02:31:30;2.72;;;1.52;;
16870;SDS011;8552;48.120;-1.456;2023-08-30T02:33:56;1.52;;;1.30;;
16870;SDS011;8552;48.120;-1.456;2023-08-30T02:36:22;3.10;;;1.08;;
16870;SDS011;8552;48.120;-1.456;2023-08-30T02:38:49;2.63;;;1.40;;
16870;SDS011;8552;48.120;-1.456;2023-08-30T02:41:14;1.15;;;0.80;;
16870;SDS011;8552;48.120;-1.456;2023-08-30T02:43:40;3.53;;;1.27;;
16870;SDS011;8552;48.120;-1.456;2023-08-30T02:46:06;1.70;;;1.02;;
16870;SDS011;8552;48.120;-1.456;2023-08-30T02:48:32;3.75;;;1.30;;
16870;SDS011;8552;48.120;-1.456;2023-08-30T02:50:58;2.20;;;1.20;;
16870;SDS011;8552;48.120;-1.456;2023-08-30T02:53:24;1.83;;;1.23;;
16870;SDS011;8552;48.120;-1.456;2023-08-30T02:55:50;2.40;;;0.93;;
16870;SDS011;8552;48.120;-1.456;2023-08-30T02:58:15;2.90;;;1.30;;
16870;SDS011;8552;48.120;-1.456;2023-08-30T03:00:41;2.75;;;1.40;;
16870;SDS011;8552;48.120;-1.456;2023-08-30T03:03:07;2.67;;;1.13;;
16870;SDS011;8552;48.120;-1.456;2023-08-30T03:05:33;3.22;;;1.30;;
16870;SDS011;8552;48.120;-1.456;2023-08-30T03:07:58;4.28;;;1.88;;
16870;SDS011;8552;48.120;-1.456;2023-08-30T03:10:24;3.38;;;1.58;;
16870;SDS011;8552;48.120;-1.456;2023-08-30T03:12:50;4.53;;;1.30;;
16870;SDS011;8552;48.120;-1.456;2023-08-30T03:15:16;1.95;;;1.08;;
16870;SDS011;8552;48.120;-1.456;2023-08-30T03:17:42;1.83;;;1.42;;
16870;SDS011;8552;48.120;-1.456;2023-08-30T03:20:08;2.00;;;1.10;;
16870;SDS011;8552;48.120;-1.456;2023-08-30T03:22:34;2.45;;;1.80;;
16870;SDS011;8552;48.120;-1.456;2023-08-30T03:24:59;2.38;;;1.20;;
16870;SDS011;8552;48.120;-1.456;2023-08-30T03:27:29;1.95;;;1.50;;
16870;SDS011;8552;48.120;-1.456;2023-08-30T03:29:55;2.25;;;1.40;;
16870;SDS011;8552;48.120;-1.456;2023-08-30T03:32:21;1.70;;;1.10;;
16870;SDS011;8552;48.120;-1.456;2023-08-30T03:34:47;1.63;;;1.13;;
16870;SDS011;8552;48.120;-1.456;2023-08-30T03:37:16;2.40;;;1.10;;
16870;SDS011;8552;48.120;-1.456;2023-08-30T03:39:42;2.00;;;1.02;;
16870;SDS011;8552;48.120;-1.456;2023-08-30T03:42:08;2.90;;;1.23;;
16870;SDS011;8552;48.120;-1.456;2023-08-30T03:44:34;1.27;;;1.13;;
16870;SDS011;8552;48.120;-1.456;2023-08-30T03:47:00;1.25;;;0.98;;
16870;SDS011;8552;48.120;-1.456;2023-08-30T03:49:26;3.00;;;1.05;;
16870;SDS011;8552;48.120;-1.456;2023-08-30T03:51:51;1.13;;;0.93;;
16870;SDS011;8552;48.120;-1.456;2023-08-30T03:54:17;1.77;;;1.00;;
16870;SDS011;8552;48.120;-1.456;2023-08-30T03:56:43;1.58;;;1.40;;
16870;SDS011;8552;48.120;-1.456;2023-08-30T03:59:09;1.95;;;1.45;;
16870;SDS011;8552;48.120;-1.456;2023-08-30T04:01:36;1.58;;;1.13;;
16870;SDS011;8552;48.120;-1.456;2023-08-30T04:04:01;1.80;;;0.77;;
16870;SDS011;8552;48.120;-1.456;2023-08-30T04:06:27;2.85;;;0.95;;
16870;SDS011;8552;48.120;-1.456;2023-08-30T04:08:53;3.47;;;1.02;;
16870;SDS011;8552;48.120;-1.456;2023-08-30T04:11:19;5.25;;;1.60;;
16870;SDS011;8552;48.120;-1.456;2023-08-30T04:13:45;2.95;;;1.20;;
16870;SDS011;8552;48.120;-1.456;2023-08-30T04:16:10;3.55;;;2.03;;
16870;SDS011;8552;48.120;-1.456;2023-08-30T04:18:36;2.50;;;1.70;;
16870;SDS011;8552;48.120;-1.456;2023-08-30T04:21:02;2.53;;;1.30;;
16870;SDS011;8552;48.120;-1.456;2023-08-30T04:23:28;1.30;;;0.82;;
16870;SDS011;8552;48.120;-1.456;2023-08-30T04:25:54;1.90;;;1.30;;
16870;SDS011;8552;48.120;-1.456;2023-08-30T04:28:20;3.60;;;1.70;;
16870;SDS011;8552;48.120;-1.456;2023-08-30T04:30:46;4.43;;;1.20;;
16870;SDS011;8552;48.120;-1.456;2023-08-30T04:33:12;3.20;;;1.30;;
16870;SDS011;8552;48.120;-1.456;2023-08-30T04:35:38;1.83;;;1.20;;
16870;SDS011;8552;48.120;-1.456;2023-08-30T04:38:04;2.55;;;1.58;;
16870;SDS011;8552;48.120;-1.456;2023-08-30T04:40:30;2.05;;;1.50;;
16870;SDS011;8552;48.120;-1.456;2023-08-30T04:43:00;1.83;;;1.02;;
16870;SDS011;8552;48.120;-1.456;2023-08-30T04:45:27;2.17;;;1.30;;
16870;SDS011;8552;48.120;-1.456;2023-08-30T04:47:54;4.55;;;1.90;;
16870;SDS011;8552;48.120;-1.456;2023-08-30T04:50:20;3.40;;;1.48;;
16870;SDS011;8552;48.120;-1.456;2023-08-30T04:52:46;1.70;;;1.40;;
16870;SDS011;8552;48.120;-1.456;2023-08-30T04:55:12;2.25;;;1.30;;
16870;SDS011;8552;48.120;-1.456;2023-08-30T04:57:37;3.38;;;1.23;;
16870;SDS011;8552;48.120;-1.456;2023-08-30T05:00:03;3.25;;;1.45;;
16870;SDS011;8552;48.120;-1.456;2023-08-30T05:02:30;2.53;;;1.48;;
16870;SDS011;8552;48.120;-1.456;2023-08-30T05:04:56;4.35;;;1.20;;
16870;SDS011;8552;48.120;-1.456;2023-08-30T05:07:22;3.38;;;1.40;;
16870;SDS011;8552;48.120;-1.456;2023-08-30T05:09:48;4.57;;;1.50;;
16870;SDS011;8552;48.120;-1.456;2023-08-30T05:12:13;3.65;;;1.48;;
16870;SDS011;8552;48.120;-1.456;2023-08-30T05:14:39;3.75;;;1.50;;
16870;SDS011;8552;48.120;-1.456;2023-08-30T05:17:06;4.43;;;1.15;;
16870;SDS011;8552;48.120;-1.456;2023-08-30T05:19:32;1.38;;;1.20;;
16870;SDS011;8552;48.120;-1.456;2023-08-30T05:21:58;3.03;;;1.40;;
16870;SDS011;8552;48.120;-1.456;2023-08-30T05:24:23;2.50;;;1.42;;
16870;SDS011;8552;48.120;-1.456;2023-08-30T05:26:51;2.00;;;1.50;;
16870;SDS011;8552;48.120;-1.456;2023-08-30T05:29:17;4.40;;;1.67;;
16870;SDS011;8552;48.120;-1.456;2023-08-30T05:31:43;5.25;;;1.70;;
16870;SDS011;8552;48.120;-1.456;2023-08-30T05:34:09;4.53;;;1.70;;
16870;SDS011;8552;48.120;-1.456;2023-08-30T05:36:35;2.35;;;1.60;;
16870;SDS011;8552;48.120;-1.456;2023-08-30T05:39:01;4.60;;;1.52;;
16870;SDS011;8552;48.120;-1.456;2023-08-30T05:41:28;4.15;;;2.25;;
16870;SDS011;8552;48.120;-1.456;2023-08-30T05:43:54;1.75;;;1.63;;
16870;SDS011;8552;48.120;-1.456;2023-08-30T05:46:19;3.53;;;1.52;;
16870;SDS011;8552;48.120;-1.456;2023-08-30T05:48:45;3.85;;;1.70;;
16870;SDS011;8552;48.120;-1.456;2023-08-30T05:51:11;1.77;;;1.48;;
16870;SDS011;8552;48.120;-1.456;2023-08-30T05:53:37;3.20;;;1.33;;
16870;SDS011;8552;48.120;-1.456;2023-08-30T05:56:03;3.47;;;1.45;;
16870;SDS011;8552;48.120;-1.456;2023-08-30T05:58:29;2.28;;;1.27;;
16870;SDS011;8552;48.120;-1.456;2023-08-30T06:00:56;2.17;;;1.42;;
16870;SDS011;8552;48.120;-1.456;2023-08-30T06:03:22;2.30;;;1.40;;
16870;SDS011;8552;48.120;-1.456;2023-08-30T06:05:47;4.10;;;1.40;;
16870;SDS011;8552;48.120;-1.456;2023-08-30T06:08:14;4.05;;;1.77;;
16870;SDS011;8552;48.120;-1.456;2023-08-30T06:10:40;4.25;;;1.48;;
16870;SDS011;8552;48.120;-1.456;2023-08-30T06:13:05;3.80;;;1.58;;
16870;SDS011;8552;48.120;-1.456;2023-08-30T06:15:31;3.85;;;1.35;;
16870;SDS011;8552;48.120;-1.456;2023-08-30T06:17:58;3.55;;;1.73;;
16870;SDS011;8552;48.120;-1.456;2023-08-30T06:20:27;2.78;;;1.67;;
16870;SDS011;8552;48.120;-1.456;2023-08-30T06:23:05;2.85;;;1.48;;
16870;SDS011;8552;48.120;-1.456;2023-08-30T06:25:35;3.20;;;1.40;;
16870;SDS011;8552;48.120;-1.456;2023-08-30T06:28:09;4.38;;;1.67;;
16870;SDS011;8552;48.120;-1.456;2023-08-30T06:30:34;1.77;;;1.35;;
16870;SDS011;8552;48.120;-1.456;2023-08-30T06:33:09;5.30;;;1.67;;
16870;SDS011;8552;48.120;-1.456;2023-08-30T06:35:38;5.85;;;2.35;;
16870;SDS011;8552;48.120;-1.456;2023-08-30T06:38:04;3.67;;;1.92;;
16870;SDS011;8552;48.120;-1.456;2023-08-30T06:40:34;2.88;;;1.65;;
16870;SDS011;8552;48.120;-1.456;2023-08-30T06:43:01;5.10;;;1.83;;
16870;SDS011;8552;48.120;-1.456;2023-08-30T06:45:28;4.68;;;1.73;;
16870;SDS011;8552;48.120;-1.456;2023-08-30T06:47:58;8.68;;;2.20;;
16870;SDS011;8552;48.120;-1.456;2023-08-30T06:50:23;6.18;;;1.73;;
16870;SDS011;8552;48.120;-1.456;2023-08-30T06:52:49;7.07;;;2.38;;
16870;SDS011;8552;48.120;-1.456;2023-08-30T06:55:15;5.90;;;2.47;;
16870;SDS011;8552;48.120;-1.456;2023-08-30T06:57:40;6.22;;;2.58;;
16870;SDS011;8552;48.120;-1.456;2023-08-30T07:00:06;5.22;;;2.40;;
16870;SDS011;8552;48.120;-1.456;2023-08-30T07:02:37;4.40;;;1.90;;
16870;SDS011;8552;48.120;-1.456;2023-08-30T07:05:03;4.97;;;1.88;;
16870;SDS011;8552;48.120;-1.456;2023-08-30T07:07:30;4.68;;;1.80;;
16870;SDS011;8552;48.120;-1.456;2023-08-30T07:09:57;3.70;;;1.75;;
16870;SDS011;8552;48.120;-1.456;2023-08-30T07:12:23;4.63;;;1.75;;
16870;SDS011;8552;48.120;-1.456;2023-08-30T07:14:51;3.58;;;1.70;;
16870;SDS011;8552;48.120;-1.456;2023-08-30T07:17:17;3.38;;;1.48;;
16870;SDS011;8552;48.120;-1.456;2023-08-30T07:19:42;4.60;;;1.52;;
16870;SDS011;8552;48.120;-1.456;2023-08-30T07:22:08;4.85;;;1.90;;
16870;SDS011;8552;48.120;-1.456;2023-08-30T07:24:34;3.03;;;1.75;;
16870;SDS011;8552;48.120;-1.456;2023-08-30T07:26:59;5.65;;;1.90;;
16870;SDS011;8552;48.120;-1.456;2023-08-30T07:29:25;3.45;;;2.47;;
16870;SDS011;8552;48.120;-1.456;2023-08-30T07:31:51;6.32;;;1.95;;
16870;SDS011;8552;48.120;-1.456;2023-08-30T07:34:18;4.13;;;2.05;;
16870;SDS011;8552;48.120;-1.456;2023-08-30T07:36:44;5.70;;;2.35;;
16870;SDS011;8552;48.120;-1.456;2023-08-30T07:39:10;5.00;;;1.95;;
16870;SDS011;8552;48.120;-1.456;2023-08-30T07:41:36;6.28;;;2.20;;
16870;SDS011;8552;48.120;-1.456;2023-08-30T07:44:02;5.78;;;1.77;;
16870;SDS011;8552;48.120;-1.456;2023-08-30T07:46:28;4.72;;;1.77;;
16870;SDS011;8552;48.120;-1.456;2023-08-30T07:48:54;8.23;;;2.28;;
16870;SDS011;8552;48.120;-1.456;2023-08-30T07:51:21;6.85;;;2.00;;
16870;SDS011;8552;48.120;-1.456;2023-08-30T07:53:50;8.27;;;1.73;;
16870;SDS011;8552;48.120;-1.456;2023-08-30T07:56:17;6.63;;;2.78;;
16870;SDS011;8552;48.120;-1.456;2023-08-30T07:58:46;3.08;;;1.70;;
16870;SDS011;8552;48.120;-1.456;2023-08-30T08:01:14;6.47;;;1.75;;
16870;SDS011;8552;48.120;-1.456;2023-08-30T08:03:46;5.10;;;2.03;;
16870;SDS011;8552;48.120;-1.456;2023-08-30T08:06:15;4.28;;;2.13;;
16870;SDS011;8552;48.120;-1.456;2023-08-30T08:08:43;4.82;;;1.83;;
16870;SDS011;8552;48.120;-1.456;2023-08-30T08:11:12;3.85;;;1.90;;
16870;SDS011;8552;48.120;-1.456;2023-08-30T08:13:44;4.53;;;1.77;;
16870;SDS011;8552;48.120;-1.456;2023-08-30T08:16:11;3.92;;;1.55;;
16870;SDS011;8552;48.120;-1.456;2023-08-30T08:18:41;2.35;;;1.40;;
16870;SDS011;8552;48.120;-1.456;2023-08-30T08:21:14;6.70;;;2.28;;
16870;SDS011;8552;48.120;-1.456;2023-08-30T08:23:43;4.43;;;1.42;;
16870;SDS011;8552;48.120;-1.456;2023-08-30T08:26:15;3.92;;;1.95;;
16870;SDS011;8552;48.120;-1.456;2023-08-30T08:28:43;4.40;;;1.33;;
16870;SDS011;8552;48.120;-1.456;2023-08-30T08:31:11;1.77;;;1.40;;
16870;SDS011;8552;48.120;-1.456;2023-08-30T08:33:37;2.83;;;1.60;;
16870;SDS011;8552;48.120;-1.456;2023-08-30T08:36:03;3.88;;;1.52;;
16870;SDS011;8552;48.120;-1.456;2023-08-30T08:38:29;5.22;;;1.50;;
16870;SDS011;8552;48.120;-1.456;2023-08-30T08:41:01;4.07;;;1.98;;
16870;SDS011;8552;48.120;-1.456;2023-08-30T08:43:30;3.25;;;1.20;;
16870;SDS011;8552;48.120;-1.456;2023-08-30T08:46:03;2.38;;;1.70;;
16870;SDS011;8552;48.120;-1.456;2023-08-30T08:48:31;4.95;;;1.58;;
16870;SDS011;8552;48.120;-1.456;2023-08-30T08:51:03;3.78;;;1.75;;
16870;SDS011;8552;48.120;-1.456;2023-08-30T08:53:29;3.67;;;1.80;;
16870;SDS011;8552;48.120;-1.456;2023-08-30T08:55:55;7.13;;;1.70;;
16870;SDS011;8552;48.120;-1.456;2023-08-30T08:58:23;6.07;;;1.42;;
16870;SDS011;8552;48.120;-1.456;2023-08-30T09:00:50;3.15;;;1.50;;
16870;SDS011;8552;48.120;-1.456;2023-08-30T09:03:17;4.20;;;1.63;;
16870;SDS011;8552;48.120;-1.456;2023-08-30T09:05:49;4.35;;;2.03;;
16870;SDS011;8552;48.120;-1.456;2023-08-30T09:08:19;3.90;;;2.00;;
16870;SDS011;8552;48.120;-1.456;2023-08-30T09:10:48;6.53;;;1.80;;
16870;SDS011;8552;48.120;-1.456;2023-08-30T09:13:15;4.00;;;1.60;;
16870;SDS011;8552;48.120;-1.456;2023-08-30T09:15:41;2.70;;;1.40;;
16870;SDS011;8552;48.120;-1.456;2023-08-30T09:18:16;3.60;;;1.73;;
16870;SDS011;8552;48.120;-1.456;2023-08-30T09:20:43;3.30;;;1.30;;
16870;SDS011;8552;48.120;-1.456;2023-08-30T09:23:19;2.20;;;1.52;;
16870;SDS011;8552;48.120;-1.456;2023-08-30T09:25:46;2.67;;;1.25;;
16870;SDS011;8552;48.120;-1.456;2023-08-30T09:28:12;3.28;;;1.33;;
16870;SDS011;8552;48.120;-1.456;2023-08-30T09:30:38;3.63;;;1.40;;
16870;SDS011;8552;48.120;-1.456;2023-08-30T09:33:04;3.90;;;1.70;;
16870;SDS011;8552;48.120;-1.456;2023-08-30T09:35:31;2.63;;;1.48;;
16870;SDS011;8552;48.120;-1.456;2023-08-30T09:38:05;5.25;;;1.70;;
16870;SDS011;8552;48.120;-1.456;2023-08-30T09:40:31;2.92;;;1.00;;
16870;SDS011;8552;48.120;-1.456;2023-08-30T09:42:59;5.88;;;1.67;;
16870;SDS011;8552;48.120;-1.456;2023-08-30T09:45:25;2.83;;;1.27;;
16870;SDS011;8552;48.120;-1.456;2023-08-30T09:47:51;1.98;;;1.10;;
16870;SDS011;8552;48.120;-1.456;2023-08-30T09:50:18;3.83;;;1.35;;
16870;SDS011;8552;48.120;-1.456;2023-08-30T09:52:50;1.70;;;0.95;;
16870;SDS011;8552;48.120;-1.456;2023-08-30T09:55:18;2.40;;;1.40;;
16870;SDS011;8552;48.120;-1.456;2023-08-30T09:57:44;1.65;;;1.05;;
16870;SDS011;8552;48.120;-1.456;2023-08-30T10:00:10;4.43;;;1.33;;
16870;SDS011;8552;48.120;-1.456;2023-08-30T10:02:42;2.28;;;1.15;;
16870;SDS011;8552;48.120;-1.456;2023-08-30T10:05:12;1.98;;;1.40;;
16870;SDS011;8552;48.120;-1.456;2023-08-30T10:07:38;3.72;;;1.30;;
16870;SDS011;8552;48.120;-1.456;2023-08-30T10:10:04;3.38;;;1.33;;
16870;SDS011;8552;48.120;-1.456;2023-08-30T10:12:34;2.67;;;1.92;;
16870;SDS011;8552;48.120;-1.456;2023-08-30T10:15:01;2.85;;;1.45;;
16870;SDS011;8552;48.120;-1.456;2023-08-30T10:17:28;2.85;;;1.00;;
16870;SDS011;8552;48.120;-1.456;2023-08-30T10:19:57;2.63;;;1.25;;
16870;SDS011;8552;48.120;-1.456;2023-08-30T10:22:28;4.30;;;1.10;;
16870;SDS011;8552;48.120;-1.456;2023-08-30T10:25:06;4.70;;;1.38;;
16870;SDS011;8552;48.120;-1.456;2023-08-30T10:27:37;6.50;;;1.50;;
16870;SDS011;8552;48.120;-1.456;2023-08-30T10:30:05;3.13;;;1.63;;
16870;SDS011;8552;48.120;-1.456;2023-08-30T10:32:38;2.83;;;0.98;;
16870;SDS011;8552;48.120;-1.456;2023-08-30T10:35:05;3.78;;;1.08;;
16870;SDS011;8552;48.120;-1.456;2023-08-30T10:37:31;1.77;;;1.02;;
16870;SDS011;8552;48.120;-1.456;2023-08-30T10:40:00;3.33;;;1.05;;
16870;SDS011;8552;48.120;-1.456;2023-08-30T10:42:29;3.90;;;1.35;;
16870;SDS011;8552;48.120;-1.456;2023-08-30T10:47:30;3.17;;;1.55;;
16870;SDS011;8552;48.120;-1.456;2023-08-30T10:50:02;2.60;;;1.33;;
16870;SDS011;8552;48.120;-1.456;2023-08-30T10:52:32;2.53;;;1.13;;
16870;SDS011;8552;48.120;-1.456;2023-08-30T10:55:11;3.50;;;1.63;;
16870;SDS011;8552;48.120;-1.456;2023-08-30T10:57:44;3.70;;;1.52;;
16870;SDS011;8552;48.120;-1.456;2023-08-30T11:02:43;3.55;;;1.20;;
16870;SDS011;8552;48.120;-1.456;2023-08-30T11:05:13;5.50;;;1.45;;
16870;SDS011;8552;48.120;-1.456;2023-08-30T11:07:41;2.67;;;1.33;;
16870;SDS011;8552;48.120;-1.456;2023-08-30T11:10:11;3.78;;;1.45;;
16870;SDS011;8552;48.120;-1.456;2023-08-30T11:12:41;3.67;;;1.40;;
16870;SDS011;8552;48.120;-1.456;2023-08-30T11:15:09;3.60;;;1.52;;
16870;SDS011;8552;48.120;-1.456;2023-08-30T11:17:35;3.65;;;1.25;;
16870;SDS011;8552;48.120;-1.456;2023-08-30T11:20:05;6.82;;;1.48;;
16870;SDS011;8552;48.120;-1.456;2023-08-30T11:22:38;3.85;;;1.35;;
16870;SDS011;8552;48.120;-1.456;2023-08-30T11:25:05;2.25;;;1.08;;
16870;SDS011;8552;48.120;-1.456;2023-08-30T11:27:34;5.45;;;1.48;;
16870;SDS011;8552;48.120;-1.456;2023-08-30T11:30:00;4.80;;;1.60;;
16870;SDS011;8552;48.120;-1.456;2023-08-30T11:32:40;2.83;;;1.10;;
16870;SDS011;8552;48.120;-1.456;2023-08-30T11:35:09;2.60;;;1.13;;
16870;SDS011;8552;48.120;-1.456;2023-08-30T11:37:35;4.25;;;1.50;;
16870;SDS011;8552;48.120;-1.456;2023-08-30T11:40:04;5.38;;;1.55;;
16870;SDS011;8552;48.120;-1.456;2023-08-30T11:42:31;5.13;;;2.22;;
16870;SDS011;8552;48.120;-1.456;2023-08-30T11:44:58;4.95;;;1.50;;
16870;SDS011;8552;48.120;-1.456;2023-08-30T11:47:27;3.65;;;1.35;;
16870;SDS011;8552;48.120;-1.456;2023-08-30T11:49:54;5.45;;;1.90;;
16870;SDS011;8552;48.120;-1.456;2023-08-30T11:52:23;3.75;;;1.30;;
16870;SDS011;8552;48.120;-1.456;2023-08-30T11:54:50;4.22;;;1.70;;
16870;SDS011;8552;48.120;-1.456;2023-08-30T11:57:16;5.43;;;1.85;;
16870;SDS011;8552;48.120;-1.456;2023-08-30T11:59:42;3.95;;;1.38;;
16870;SDS011;8552;48.120;-1.456;2023-08-30T12:02:08;4.72;;;1.52;;
16870;SDS011;8552;48.120;-1.456;2023-08-30T12:04:44;5.40;;;1.70;;
16870;SDS011;8552;48.120;-1.456;2023-08-30T12:07:20;5.93;;;1.60;;
16870;SDS011;8552;48.120;-1.456;2023-08-30T12:09:50;3.30;;;1.63;;
16870;SDS011;8552;48.120;-1.456;2023-08-30T12:12:16;4.28;;;1.40;;
16870;SDS011;8552;48.120;-1.456;2023-08-30T12:14:42;5.35;;;1.98;;
16870;SDS011;8552;48.120;-1.456;2023-08-30T12:17:08;4.45;;;1.73;;
16870;SDS011;8552;48.120;-1.456;2023-08-30T12:19:37;5.95;;;1.70;;
16870;SDS011;8552;48.120;-1.456;2023-08-30T12:22:05;6.13;;;1.80;;
16870;SDS011;8552;48.120;-1.456;2023-08-30T12:24:42;3.35;;;1.42;;
16870;SDS011;8552;48.120;-1.456;2023-08-30T12:27:14;7.13;;;2.08;;
16870;SDS011;8552;48.120;-1.456;2023-08-30T12:29:40;6.50;;;1.63;;
16870;SDS011;8552;48.120;-1.456;2023-08-30T12:32:07;7.13;;;2.25;;
16870;SDS011;8552;48.120;-1.456;2023-08-30T12:34:34;2.83;;;1.50;;
16870;SDS011;8552;48.120;-1.456;2023-08-30T12:37:02;6.80;;;2.03;;
16870;SDS011;8552;48.120;-1.456;2023-08-30T12:39:29;3.83;;;1.65;;
16870;SDS011;8552;48.120;-1.456;2023-08-30T12:41:55;4.18;;;1.95;;
16870;SDS011;8552;48.120;-1.456;2023-08-30T12:44:23;2.33;;;1.45;;
16870;SDS011;8552;48.120;-1.456;2023-08-30T12:46:49;7.72;;;1.90;;
16870;SDS011;8552;48.120;-1.456;2023-08-30T12:49:15;4.22;;;1.67;;
16870;SDS011;8552;48.120;-1.456;2023-08-30T12:51:40;4.82;;;1.52;;
16870;SDS011;8552;48.120;-1.456;2023-08-30T12:54:06;5.38;;;1.58;;
16870;SDS011;8552;48.120;-1.456;2023-08-30T12:56:32;2.85;;;1.70;;
16870;SDS011;8552;48.120;-1.456;2023-08-30T12:58:57;4.35;;;1.83;;
16870;SDS011;8552;48.120;-1.456;2023-08-30T13:01:23;4.38;;;1.67;;
16870;SDS011;8552;48.120;-1.456;2023-08-30T13:03:49;6.45;;;1.98;;
16870;SDS011;8552;48.120;-1.456;2023-08-30T13:06:15;7.30;;;2.00;;
16870;SDS011;8552;48.120;-1.456;2023-08-30T13:08:40;4.38;;;1.80;;
16870;SDS011;8552;48.120;-1.456;2023-08-30T13:11:06;4.07;;;1.63;;
16870;SDS011;8552;48.120;-1.456;2023-08-30T13:13:32;7.43;;;1.77;;
16870;SDS011;8552;48.120;-1.456;2023-08-30T13:15:57;5.13;;;1.45;;
16870;SDS011;8552;48.120;-1.456;2023-08-30T13:18:23;5.07;;;1.60;;
16870;SDS011;8552;48.120;-1.456;2023-08-30T13:20:49;7.25;;;1.95;;
16870;SDS011;8552;48.120;-1.456;2023-08-30T13:23:15;7.93;;;2.83;;
16870;SDS011;8552;48.120;-1.456;2023-08-30T13:25:40;7.13;;;2.25;;
16870;SDS011;8552;48.120;-1.456;2023-08-30T13:28:06;7.53;;;2.30;;
16870;SDS011;8552;48.120;-1.456;2023-08-30T13:30:33;6.68;;;2.88;;
16870;SDS011;8552;48.120;-1.456;2023-08-30T13:32:59;4.93;;;2.00;;
16870;SDS011;8552;48.120;-1.456;2023-08-30T13:35:24;8.95;;;1.92;;
16870;SDS011;8552;48.120;-1.456;2023-08-30T13:37:50;5.18;;;1.80;;
16870;SDS011;8552;48.120;-1.456;2023-08-30T13:40:16;5.90;;;1.95;;
16870;SDS011;8552;48.120;-1.456;2023-08-30T13:42:42;7.63;;;2.20;;
16870;SDS011;8552;48.120;-1.456;2023-08-30T13:45:08;5.97;;;1.80;;
16870;SDS011;8552;48.120;-1.456;2023-08-30T13:47:38;5.25;;;2.03;;
16870;SDS011;8552;48.120;-1.456;2023-08-30T13:50:04;4.20;;;1.77;;
16870;SDS011;8552;48.120;-1.456;2023-08-30T13:52:30;4.68;;;1.90;;
16870;SDS011;8552;48.120;-1.456;2023-08-30T13:54:58;6.57;;;2.08;;
16870;SDS011;8552;48.120;-1.456;2023-08-30T13:57:23;2.97;;;1.50;;
16870;SDS011;8552;48.120;-1.456;2023-08-30T13:59:49;6.05;;;1.70;;
16870;SDS011;8552;48.120;-1.456;2023-08-30T14:02:15;6.07;;;2.15;;
16870;SDS011;8552;48.120;-1.456;2023-08-30T14:04:41;8.13;;;2.03;;
16870;SDS011;8552;48.120;-1.456;2023-08-30T14:07:06;6.70;;;1.98;;
16870;SDS011;8552;48.120;-1.456;2023-08-30T14:09:32;6.00;;;2.05;;
16870;SDS011;8552;48.120;-1.456;2023-08-30T14:11:58;5.95;;;2.03;;
16870;SDS011;8552;48.120;-1.456;2023-08-30T14:14:23;5.78;;;2.45;;
16870;SDS011;8552;48.120;-1.456;2023-08-30T14:16:49;7.90;;;2.10;;
16870;SDS011;8552;48.120;-1.456;2023-08-30T14:19:15;5.95;;;1.75;;
16870;SDS011;8552;48.120;-1.456;2023-08-30T14:21:41;5.00;;;1.80;;
16870;SDS011;8552;48.120;-1.456;2023-08-30T14:24:07;4.63;;;1.90;;
16870;SDS011;8552;48.120;-1.456;2023-08-30T14:26:33;5.93;;;1.75;;
16870;SDS011;8552;48.120;-1.456;2023-08-30T14:28:58;5.15;;;1.67;;
16870;SDS011;8552;48.120;-1.456;2023-08-30T14:31:24;7.68;;;2.00;;
16870;SDS011;8552;48.120;-1.456;2023-08-30T14:33:53;5.72;;;1.90;;
16870;SDS011;8552;48.120;-1.456;2023-08-30T14:36:21;5.53;;;2.03;;
16870;SDS011;8552;48.120;-1.456;2023-08-30T14:38:46;5.72;;;2.38;;
16870;SDS011;8552;48.120;-1.456;2023-08-30T14:41:12;8.35;;;2.63;;
16870;SDS011;8552;48.120;-1.456;2023-08-30T14:43:41;5.55;;;1.88;;
16870;SDS011;8552;48.120;-1.456;2023-08-30T14:46:07;7.97;;;2.78;;
16870;SDS011;8552;48.120;-1.456;2023-08-30T14:48:32;8.57;;;2.20;;
16870;SDS011;8552;48.120;-1.456;2023-08-30T14:50:59;5.82;;;1.80;;
16870;SDS011;8552;48.120;-1.456;2023-08-30T14:53:25;6.00;;;2.10;;
16870;SDS011;8552;48.120;-1.456;2023-08-30T14:55:51;7.30;;;2.05;;
16870;SDS011;8552;48.120;-1.456;2023-08-30T14:58:17;4.88;;;1.80;;
16870;SDS011;8552;48.120;-1.456;2023-08-30T15:00:43;4.97;;;2.17;;